METAR Data
IDs: Format: Raw Decoded Include TAF

Data at: 1450 UTC 10 Aug 2022

KL18 101435Z AUTO 00000KT 10SM CLR 23/12 A3001 RMK AO2
KL18 101415Z AUTO 36003KT 10SM CLR 22/14 A3001 RMK AO2
KL18 101355Z AUTO 36003KT 10SM CLR 21/15 A3000 RMK AO2
KL18 101335Z AUTO 02003KT 10SM CLR 20/16 A2999 RMK AO2
KL18 101315Z AUTO 00000KT 10SM CLR 20/18 A2999 RMK AO2
KL18 101255Z AUTO 00000KT 10SM CLR 20/16 A2999 RMK AO2
KL18 101235Z AUTO 00000KT 10SM CLR 20/18 A2998 RMK AO2
KL18 101215Z AUTO 00000KT 10SM CLR 20/17 A2997 RMK AO2
KL18 101155Z AUTO 00000KT 10SM CLR 20/17 A2998 RMK AO2
KL18 101135Z AUTO 00000KT 10SM CLR 19/17 A2998 RMK AO2
KL18 101115Z AUTO 00000KT 10SM CLR 21/17 A2997 RMK AO2
KL18 101055Z AUTO 00000KT 10SM CLR 20/17 A2998 RMK AO2
KL18 101035Z AUTO 01003KT 10SM CLR 20/17 A2998 RMK AO2
KL18 101015Z AUTO 00000KT 10SM CLR 20/17 A2998 RMK AO2
KL18 100955Z AUTO 00000KT 10SM CLR 20/17 A2998 RMK AO2
KL18 100935Z AUTO 00000KT 10SM CLR 20/18 A2998 RMK AO2
KL18 100915Z AUTO 00000KT 10SM CLR 20/18 A2999 RMK AO2
KL18 100855Z AUTO 00000KT 10SM CLR 20/18 A2999 RMK AO2
KL18 100835Z AUTO 00000KT 10SM CLR 21/18 A2999 RMK AO2
KL18 100815Z AUTO 00000KT 10SM CLR 21/18 A2999 RMK AO2
KL18 100755Z AUTO 00000KT 10SM CLR 20/18 A3000 RMK AO2
KL18 100735Z AUTO 00000KT 10SM CLR 20/18 A3000 RMK AO2
KL18 100715Z AUTO 00000KT 10SM CLR 20/18 A3000 RMK AO2
KL18 100655Z AUTO 00000KT 10SM CLR 21/18 A3000 RMK AO2
KL18 100635Z AUTO 00000KT 10SM CLR 21/18 A3000 RMK AO2
KL18 100615Z AUTO 00000KT 10SM CLR 21/18 A3000 RMK AO2
KL18 100555Z AUTO 00000KT 10SM CLR 21/18 A3000 RMK AO2
KL18 100535Z AUTO 00000KT 10SM CLR 21/18 A3000 RMK AO2
KL18 100515Z AUTO 00000KT 10SM CLR 22/18 A2999 RMK AO2
KL18 100455Z AUTO 00000KT 10SM CLR 22/18 A2999 RMK AO2
KL18 100435Z AUTO 00000KT 10SM CLR 22/18 A2998 RMK AO2
KL18 100415Z AUTO 00000KT 10SM CLR 22/18 A2997 RMK AO2
KL18 100355Z AUTO 26003KT 10SM CLR 22/18 A2996 RMK AO2
KL18 100335Z AUTO 24003KT 10SM CLR 23/17 A2996 RMK AO2
KL18 100315Z AUTO 23003KT 10SM CLR 23/17 A2996 RMK AO2
KL18 100255Z AUTO 22003KT 10SM CLR 24/17 A2995 RMK AO2
KL18 100235Z AUTO 23004KT 10SM CLR 24/17 A2993 RMK AO2
KL18 100215Z AUTO 22004KT 10SM CLR 25/17 A2993 RMK AO2
KL18 100155Z AUTO 23009KT 10SM CLR 26/17 A2992 RMK AO2
KL18 100135Z AUTO 21005KT 10SM CLR 27/13 A2993 RMK AO2
KL18 100115Z AUTO 20005KT 10SM CLR 28/11 A2992 RMK AO2
KL18 100055Z AUTO 19003KT 10SM CLR 29/10 A2991 RMK AO2
KL18 100035Z AUTO 20006KT 10SM CLR 31/06 A2991 RMK AO2
KL18 100015Z AUTO 22005KT 10SM CLR 31/07 A2991 RMK AO2
KL18 092355Z AUTO 22006KT 10SM CLR 31/09 A2992 RMK AO2
KL18 092335Z AUTO 21010KT 170V230 10SM CLR 31/09 A2992 RMK AO2
KL18 092315Z AUTO 20010KT 10SM CLR 31/08 A2992 RMK AO2
KL18 092255Z AUTO 23011G16KT 10SM CLR 31/06 A2992 RMK AO2
KL18 092235Z AUTO 23010G16KT 10SM CLR 32/09 A2992 RMK AO2
KL18 092215Z AUTO 24011KT 10SM CLR 31/10 A2992 RMK AO2
KL18 092155Z AUTO 23011G16KT 10SM CLR 32/12 A2993 RMK AO2
KL18 092135Z AUTO 23009G16KT 10SM CLR 33/13 A2993 RMK AO2
KL18 092115Z AUTO 23013G17KT 10SM CLR 32/14 A2994 RMK AO2
KL18 092055Z AUTO 22009G15KT 10SM CLR 32/15 A2994 RMK AO2
KL18 092035Z AUTO 22009G15KT 10SM CLR 32/16 A2995 RMK AO2
KL18 092015Z AUTO 23009G15KT 10SM CLR 32/16 A2995 RMK AO2
KL18 091955Z AUTO 22010G16KT 170V240 10SM CLR 32/15 A2996 RMK AO2
KL18 091935Z AUTO 25009G16KT 10SM CLR 32/15 A2995 RMK AO2
KL18 091915Z AUTO 23009G14KT 10SM CLR 33/14 A2996 RMK AO2
KL18 091855Z AUTO 26008G14KT 10SM CLR 33/17 A2996 RMK AO2
KL18 091835Z AUTO 26008KT 10SM CLR 33/17 A2996 RMK AO2
KL18 091815Z AUTO 26004KT 10SM CLR 32/15 A2996 RMK AO2
KL18 091755Z AUTO 00000KT 10SM CLR 31/16 A2996 RMK AO2
KL18 091735Z AUTO 26005KT 10SM CLR 30/16 A2997 RMK AO2
KL18 091715Z AUTO 00000KT 10SM CLR 30/16 A2997 RMK AO2
KL18 091655Z AUTO 00000KT 10SM CLR 28/16 A2997 RMK AO2
KL18 091635Z AUTO 00000KT 10SM CLR 28/16 A2997 RMK AO2
KL18 091615Z AUTO 00000KT 10SM CLR 26/17 A2997 RMK AO2
KL18 091555Z AUTO 00000KT 10SM CLR 26/17 A2998 RMK AO2
KL18 091535Z AUTO 00000KT 10SM CLR 25/17 A2997 RMK AO2
KL18 091515Z AUTO 00000KT 10SM CLR 24/17 A2997 RMK AO2
KL18 091455Z AUTO 00000KT 10SM CLR 23/17 A2997 RMK AO2
KL18 091435Z AUTO 00000KT 10SM CLR 21/17 A2996 RMK AO2
KL18 091415Z AUTO 00000KT 10SM CLR 20/17 A2996 RMK AO2
KL18 091355Z AUTO 00000KT 10SM CLR 20/17 A2995 RMK AO2
KL18 091335Z AUTO 00000KT 10SM CLR 21/16 A2994 RMK AO2
KL18 091315Z AUTO 00000KT 10SM CLR 20/17 A2994 RMK AO2
KL18 091255Z AUTO 00000KT 10SM CLR 20/17 A2993 RMK AO2
KL18 091235Z AUTO 00000KT 10SM CLR 20/17 A2993 RMK AO2
KL18 091215Z AUTO 00000KT 10SM CLR 20/17 A2992 RMK AO2
KL18 091155Z AUTO 00000KT 10SM CLR 20/17 A2992 RMK AO2
KL18 091135Z AUTO 00000KT 10SM CLR 20/17 A2992 RMK AO2
KL18 091115Z AUTO 00000KT 10SM CLR 21/17 A2992 RMK AO2
KL18 091055Z AUTO 00000KT 10SM CLR 21/17 A2992 RMK AO2
KL18 091035Z AUTO 00000KT 10SM CLR 21/17 A2992 RMK AO2
KL18 091015Z AUTO 00000KT 10SM CLR 21/17 A2992 RMK AO2
KL18 090955Z AUTO 00000KT 10SM CLR 21/17 A2992 RMK AO2
KL18 090935Z AUTO 00000KT 10SM CLR 21/17 A2992 RMK AO2
KL18 090915Z AUTO 00000KT 10SM CLR 21/17 A2992 RMK AO2
KL18 090855Z AUTO 00000KT 10SM CLR 21/17 A2993 RMK AO2
KL18 090835Z AUTO 00000KT 10SM CLR 22/17 A2993 RMK AO2
KL18 090815Z AUTO 00000KT 10SM CLR 21/17 A2993 RMK AO2
KL18 090755Z AUTO 00000KT 10SM CLR 21/17 A2994 RMK AO2
KL18 090735Z AUTO 00000KT 10SM CLR 22/17 A2995 RMK AO2
KL18 090715Z AUTO 29003KT 10SM CLR 22/17 A2996 RMK AO2
KL18 090655Z AUTO 28003KT 10SM CLR 22/17 A2996 RMK AO2
KL18 090635Z AUTO 00000KT 10SM CLR 22/17 A2997 RMK AO2
KL18 090615Z AUTO 26003KT 10SM CLR 23/16 A2996 RMK AO2
KL18 090555Z AUTO 00000KT 10SM CLR 23/16 A2996 RMK AO2
KL18 090535Z AUTO 00000KT 10SM CLR 23/16 A2996 RMK AO2
KL18 090515Z AUTO 00000KT 10SM CLR 24/16 A2996 RMK AO2
KL18 090455Z AUTO 00000KT 10SM CLR 24/16 A2995 RMK AO2
KL18 090435Z AUTO 00000KT 10SM CLR 23/16 A2995 RMK AO2
KL18 090415Z AUTO 00000KT 10SM CLR 23/16 A2996 RMK AO2
KL18 090355Z AUTO 00000KT 10SM CLR 23/16 A2995 RMK AO2
KL18 090335Z AUTO 28004KT 10SM CLR 23/17 A2995 RMK AO2
KL18 090315Z AUTO 28003KT 10SM CLR 24/17 A2994 RMK AO2
KL18 090255Z AUTO 26003KT 10SM CLR 24/16 A2994 RMK AO2